Time;durP1;ratioP1;P1;durP2;ratioP2;P2;SDS_P1;SDS_P2;PMS_P1;PMS_P2;Temp;Humidity;BMP_temperature;BMP_pressure;BME280_temperature;BME280_humidity;BME280_pressure;Samples;Min_cycle;Max_cycle;Signal;HPM_P1;HPM_P2
2024/01/08 00:02:08;;;;;;;15.63;9.13;;;;;;;-1.88;74.33;102611.72;4955559;29;20194;-71
2024/01/08 00:04:34;;;;;;;10.30;9.30;;;;;;;-1.82;74.19;102607.25;4955433;29;20191;-71
2024/01/08 00:07:01;;;;;;;11.60;9.30;;;;;;;-1.85;74.16;102606.41;4955445;28;20269;-70
2024/01/08 00:09:27;;;;;;;10.23;9.43;;;;;;;-1.93;74.59;102600.44;4955822;29;20198;-70
2024/01/08 00:11:54;;;;;;;8.70;8.20;;;;;;;-1.89;74.37;102609.97;4955378;29;20195;-70
2024/01/08 00:14:20;;;;;;;8.63;7.90;;;;;;;-1.90;74.63;102609.97;4955496;29;20273;-70
2024/01/08 00:16:47;;;;;;;8.77;8.07;;;;;;;-2.01;73.86;102618.03;4955253;29;20198;-70
2024/01/08 00:19:14;;;;;;;8.90;8.27;;;;;;;-2.03;73.54;102603.22;4955167;28;20300;-70
2024/01/08 00:21:41;;;;;;;8.23;7.63;;;;;;;-1.97;73.08;102598.75;4955497;29;20212;-70
2024/01/08 00:24:08;;;;;;;9.77;8.80;;;;;;;-1.99;73.02;102603.13;4955196;29;20433;-70
2024/01/08 00:26:35;;;;;;;8.50;8.00;;;;;;;-2.07;72.15;102599.78;4955750;29;20210;-70
2024/01/08 00:29:01;;;;;;;7.57;7.20;;;;;;;-2.09;72.03;102600.72;4955432;28;20208;-70
2024/01/08 00:31:28;;;;;;;10.80;7.93;;;;;;;-2.04;72.91;102604.13;4955132;29;20627;-70
2024/01/08 00:33:55;;;;;;;7.77;7.43;;;;;;;-2.04;72.61;102604.13;4955016;29;20610;-70
2024/01/08 00:36:22;;;;;;;8.70;8.00;;;;;;;-2.04;72.42;102602.38;4955085;29;20199;-70
2024/01/08 00:38:48;;;;;;;8.63;8.13;;;;;;;-2.09;72.88;102609.44;4954979;28;20698;-70
2024/01/08 00:41:15;;;;;;;8.67;8.10;;;;;;;-2.00;72.65;102617.16;4955003;29;20685;-70
2024/01/08 00:43:41;;;;;;;8.73;8.10;;;;;;;-2.13;73.55;102612.13;4955274;29;20191;-70
2024/01/08 00:46:08;;;;;;;9.13;8.40;;;;;;;-2.14;73.89;102607.78;4955068;29;20187;-70
2024/01/08 00:48:34;;;;;;;8.40;7.77;;;;;;;-2.20;73.23;102610.50;4954998;28;20626;-70
2024/01/08 00:51:01;;;;;;;8.87;8.17;;;;;;;-2.31;73.66;102608.91;4955034;29;20191;-70
2024/01/08 00:53:27;;;;;;;9.97;8.83;;;;;;;-2.25;74.37;102613.22;4956689;28;20210;-70
2024/01/08 00:55:54;;;;;;;9.03;8.53;;;;;;;-2.35;74.89;102609.84;4959438;29;20229;-70
2024/01/08 00:58:20;;;;;;;10.47;8.93;;;;;;;-2.45;74.92;102612.63;4958779;28;20214;-70
2024/01/08 01:00:47;;;;;;;9.63;8.80;;;;;;;-2.48;75.63;102610.94;4959065;29;20536;-70
2024/01/08 01:03:13;;;;;;;12.87;9.30;;;;;;;-2.53;75.69;102606.63;4959065;29;20182;-70
2024/01/08 01:05:40;;;;;;;9.63;8.67;;;;;;;-2.60;76.52;102603.25;4958693;29;20190;-70
2024/01/08 01:08:07;;;;;;;9.93;9.20;;;;;;;-2.59;75.72;102607.63;4958577;28;20218;-70
2024/01/08 01:10:33;;;;;;;9.53;8.87;;;;;;;-2.62;76.51;102609.38;4958477;29;20670;-70
2024/01/08 01:13:00;;;;;;;9.80;9.07;;;;;;;-2.74;77.01;102614.78;4958463;29;20476;-70
2024/01/08 01:15:26;;;;;;;9.70;8.83;;;;;;;-2.66;76.28;102615.56;4958508;29;20491;-70
2024/01/08 01:17:53;;;;;;;9.57;8.77;;;;;;;-2.76;77.26;102614.84;4958682;28;20256;-71
2024/01/08 01:20:19;;;;;;;10.77;8.77;;;;;;;-2.79;76.75;102618.34;4958737;29;20196;-70
2024/01/08 01:22:46;;;;;;;9.53;8.73;;;;;;;-2.73;77.66;102620.03;4958734;29;20261;-70
2024/01/08 01:25:12;;;;;;;9.93;9.23;;;;;;;-2.82;77.45;102615.78;4958696;29;20186;-71
2024/01/08 01:27:39;;;;;;;9.90;8.67;;;;;;;-2.78;77.70;102613.97;4958332;28;20578;-70
2024/01/08 01:30:06;;;;;;;10.27;9.43;;;;;;;-2.83;77.67;102616.66;4958298;29;20201;-70
2024/01/08 01:32:33;;;;;;;8.87;8.07;;;;;;;-2.83;77.92;102626.25;4958441;29;20197;-70
2024/01/08 01:34:59;;;;;;;9.57;8.80;;;;;;;-2.90;77.73;102620.25;4958179;29;20182;-70
2024/01/08 01:37:26;;;;;;;9.63;8.87;;;;;;;-2.82;77.87;102630.59;4958595;28;20698;-69
2024/01/08 01:39:52;;;;;;;8.63;7.93;;;;;;;-2.84;77.81;102634.97;4958657;29;20650;-70
2024/01/08 01:42:19;;;;;;;9.40;8.60;;;;;;;-2.88;77.76;102634.16;4958069;29;20187;-70
2024/01/08 01:44:45;;;;;;;9.67;8.97;;;;;;;-2.91;78.02;102633.34;4958287;29;20197;-70
2024/01/08 01:47:11;;;;;;;9.80;9.03;;;;;;;-2.97;79.35;102642.13;4958439;28;20183;-70
2024/01/08 01:49:39;;;;;;;9.63;8.57;;;;;;;-2.88;79.05;102639.41;4958313;29;20186;-70
2024/01/08 01:52:08;;;;;;;9.27;8.40;;;;;;;-2.90;78.60;102638.56;4957910;29;20483;-70
2024/01/08 01:54:35;;;;;;;11.83;8.93;;;;;;;-2.85;78.84;102649.84;4957811;29;20752;-71
2024/01/08 01:57:03;;;;;;;10.33;9.33;;;;;;;-2.87;78.70;102643.75;4958232;28;20436;-70
2024/01/08 01:59:32;;;;;;;9.00;8.30;;;;;;;-2.79;79.17;102644.50;4957772;29;20201;-70
2024/01/08 02:02:00;;;;;;;11.67;8.57;;;;;;;-2.82;78.37;102643.69;4958197;29;20594;-70
2024/01/08 02:04:29;;;;;;;9.17;8.50;;;;;;;-2.80;78.87;102640.16;4956487;28;20193;-70
2024/01/08 02:06:58;;;;;;;9.03;8.13;;;;;;;-2.79;78.66;102644.50;4958082;28;20190;-70
2024/01/08 02:09:26;;;;;;;12.27;8.77;;;;;;;-2.65;79.01;102633.88;4958334;29;20191;-71
2024/01/08 02:11:53;;;;;;;10.43;9.60;;;;;;;-2.66;78.95;102634.75;4957965;29;20873;-71
2024/01/08 02:14:20;;;;;;;9.40;8.60;;;;;;;-2.70;78.72;102638.28;4957693;29;20642;-71
2024/01/08 02:16:48;;;;;;;9.07;8.43;;;;;;;-2.72;78.71;102633.97;4957758;29;20183;-71
2024/01/08 02:19:14;;;;;;;8.27;7.83;;;;;;;-2.71;79.06;102639.16;4957297;28;20211;-70
2024/01/08 02:21:41;;;;;;;9.43;8.53;;;;;;;-2.61;78.63;102626.84;4957333;29;20195;-70
2024/01/08 02:24:07;;;;;;;9.90;9.07;;;;;;;-2.69;78.80;102629.56;4957319;29;20582;-70
2024/01/08 02:26:36;;;;;;;9.73;8.80;;;;;;;-2.64;78.56;102619.91;4957492;29;20198;-70
2024/01/08 02:29:02;;;;;;;9.87;9.07;;;;;;;-2.60;79.19;102628.56;4957645;28;20214;-70
2024/01/08 02:31:30;;;;;;;15.07;8.63;;;;;;;-2.59;78.94;102627.69;4957164;29;20190;-70
2024/01/08 02:33:57;;;;;;;10.10;9.20;;;;;;;-2.50;78.29;102625.78;4957205;29;20603;-70
2024/01/08 02:36:24;;;;;;;9.20;8.43;;;;;;;-2.48;78.60;102621.41;4957061;29;20191;-70
2024/01/08 02:38:50;;;;;;;10.33;9.53;;;;;;;-2.44;78.11;102622.22;4956946;28;20265;-70
2024/01/08 02:41:17;;;;;;;8.77;8.13;;;;;;;-2.50;77.63;102622.28;4956955;29;20198;-70
2024/01/08 02:43:43;;;;;;;8.80;8.17;;;;;;;-2.50;78.61;102624.91;4956967;29;20183;-70
2024/01/08 02:46:10;;;;;;;9.23;8.40;;;;;;;-2.43;79.14;102621.34;4957210;29;20242;-70
2024/01/08 02:48:36;;;;;;;9.47;8.77;;;;;;;-2.47;78.53;102631.00;4956826;28;20213;-70
2024/01/08 02:51:03;;;;;;;8.67;7.97;;;;;;;-2.42;78.60;102628.31;4956798;29;20274;-70
2024/01/08 02:53:29;;;;;;;8.73;7.93;;;;;;;-2.46;79.28;102626.63;4956946;29;20213;-70
2024/01/08 02:55:56;;;;;;;8.50;7.93;;;;;;;-2.50;78.66;102631.03;4956735;29;20238;-70
2024/01/08 02:58:22;;;;;;;9.00;8.40;;;;;;;-2.44;79.38;102637.94;4956635;28;20579;-70
2024/01/08 03:00:49;;;;;;;10.27;9.40;;;;;;;-2.44;79.10;102636.19;4957150;29;20643;-70
2024/01/08 03:03:15;;;;;;;11.30;9.30;;;;;;;-2.40;78.68;102637.00;4956567;29;20188;-70
2024/01/08 03:05:41;;;;;;;11.70;8.97;;;;;;;-2.43;79.53;102643.16;4957015;29;20215;-70
2024/01/08 03:08:08;;;;;;;11.33;10.13;;;;;;;-2.31;78.25;102644.72;4956756;28;20215;-70
2024/01/08 03:10:34;;;;;;;10.10;9.33;;;;;;;-2.31;79.08;102639.47;4956889;29;20233;-70
2024/01/08 03:13:01;;;;;;;13.23;10.30;;;;;;;-2.27;78.73;102643.78;4956371;29;20607;-70
2024/01/08 03:15:27;;;;;;;11.43;10.23;;;;;;;-2.40;78.61;102647.47;4956651;28;20283;-70
2024/01/08 03:17:54;;;;;;;11.23;10.07;;;;;;;-2.43;78.97;102642.28;4956242;28;20218;-70
2024/01/08 03:20:22;;;;;;;10.63;9.63;;;;;;;-2.42;79.65;102644.03;4956313;29;20195;-70
2024/01/08 03:22:51;;;;;;;9.83;8.97;;;;;;;-2.36;79.38;102643.91;4956472;29;20201;-70
2024/01/08 03:25:18;;;;;;;10.63;9.73;;;;;;;-2.34;79.49;102639.53;4956432;29;20275;-70
2024/01/08 03:27:44;;;;;;;11.47;10.43;;;;;;;-2.35;79.42;102640.41;4956127;28;20207;-70
2024/01/08 03:30:11;;;;;;;12.10;9.50;;;;;;;-2.24;78.80;102646.34;4956376;29;20277;-70
2024/01/08 03:32:37;;;;;;;15.53;10.17;;;;;;;-2.29;79.41;102644.72;4956038;29;20226;-70
2024/01/08 03:35:04;;;;;;;10.47;9.43;;;;;;;-2.23;79.25;102636.75;4955949;29;20293;-70
2024/01/08 03:37:31;;;;;;;11.67;10.47;;;;;;;-2.27;79.07;102635.94;4956187;28;20315;-70
2024/01/08 03:39:58;;;;;;;10.97;9.70;;;;;;;-2.28;79.88;102631.56;4955927;29;20195;-70
2024/01/08 03:42:24;;;;;;;12.87;10.67;;;;;;;-2.30;79.90;102633.38;4956165;29;20271;-71
2024/01/08 03:44:51;;;;;;;10.57;9.67;;;;;;;-2.33;80.08;102644.72;4956098;29;20191;-71
2024/01/08 03:47:17;;;;;;;14.10;9.83;;;;;;;-2.32;79.47;102641.22;4955752;28;20214;-71
2024/01/08 03:49:44;;;;;;;11.97;9.53;;;;;;;-2.36;79.72;102651.78;4956274;29;20198;-71
2024/01/08 03:52:11;;;;;;;11.23;9.87;;;;;;;-2.36;80.30;102643.91;4955713;29;20571;-71
2024/01/08 03:54:38;;;;;;;15.17;10.17;;;;;;;-2.32;79.92;102642.97;4955629;29;20203;-71
2024/01/08 03:57:05;;;;;;;10.37;9.43;;;;;;;-2.36;80.48;102644.78;4955560;28;20203;-70
2024/01/08 03:59:31;;;;;;;11.03;9.90;;;;;;;-2.32;80.59;102643.84;4955558;29;20681;-70
2024/01/08 04:01:58;;;;;;;10.30;9.30;;;;;;;-2.32;81.01;102648.22;4955542;29;20269;-70
2024/01/08 04:04:24;;;;;;;13.97;9.80;;;;;;;-2.28;80.39;102646.41;4955525;29;20199;-70
2024/01/08 04:06:51;;;;;;;13.87;10.70;;;;;;;-2.39;81.26;102643.97;4955736;29;20574;-70
2024/01/08 04:09:17;;;;;;;12.83;10.93;;;;;;;-2.33;80.99;102647.34;4955414;29;20201;-70
2024/01/08 04:11:44;;;;;;;14.27;10.30;;;;;;;-2.42;80.24;102655.34;4955558;29;20614;-70
2024/01/08 04:14:12;;;;;;;18.00;11.90;;;;;;;-2.38;81.53;102648.34;4955494;29;20656;-70
2024/01/08 04:16:38;;;;;;;14.53;10.73;;;;;;;-2.42;80.56;102638.78;4955307;29;20200;-70
2024/01/08 04:19:05;;;;;;;12.43;10.37;;;;;;;-2.34;81.50;102642.16;4938193;29;20210;-70
2024/01/08 04:21:32;;;;;;;14.90;11.30;;;;;;;-2.34;80.96;102645.66;4955508;29;20197;-70
2024/01/08 04:23:59;;;;;;;15.33;10.83;;;;;;;-2.28;80.96;102649.03;4955235;29;20199;-70
2024/01/08 04:26:27;;;;;;;14.37;11.87;;;;;;;-2.31;80.69;102644.72;4955753;29;20190;-70
2024/01/08 04:28:53;;;;;;;17.17;12.17;;;;;;;-2.36;80.76;102647.41;4954513;28;20217;-70
2024/01/08 04:31:20;;;;;;;13.60;11.87;;;;;;;-2.40;81.21;102648.34;4955150;29;20275;-70
2024/01/08 04:33:48;;;;;;;13.10;11.80;;;;;;;-2.41;81.42;102643.13;4955068;29;20242;-70
2024/01/08 04:36:15;;;;;;;14.03;11.80;;;;;;;-2.34;80.88;102636.91;4955297;29;20245;-70
2024/01/08 04:38:45;;;;;;;16.70;12.10;;;;;;;-2.22;80.84;102641.97;4955022;28;20613;-70
2024/01/08 04:41:21;;;;;;;14.83;11.97;;;;;;;-2.30;80.84;102651.69;4955755;29;20195;-70
2024/01/08 04:43:48;;;;;;;12.27;10.93;;;;;;;-2.25;81.27;102647.25;4955615;29;20535;-70
2024/01/08 04:46:15;;;;;;;18.27;11.90;;;;;;;-2.29;80.64;102647.34;4954993;29;20444;-70
2024/01/08 04:48:42;;;;;;;19.73;12.37;;;;;;;-2.24;80.54;102648.97;4954905;28;20218;-70
2024/01/08 04:51:23;;;;;;;14.70;12.77;;;;;;;-2.24;80.70;102648.97;4954996;29;20250;-70
2024/01/08 04:53:50;;;;;;;18.00;12.20;;;;;;;-2.25;80.73;102642.03;4955107;29;20203;-70
2024/01/08 04:56:23;;;;;;;14.23;12.57;;;;;;;-2.21;81.76;102637.59;4954920;29;20194;-70
2024/01/08 04:58:53;;;;;;;15.30;12.60;;;;;;;-2.35;82.06;102643.91;4954914;28;20273;-70
2024/01/08 05:01:21;;;;;;;17.30;12.87;;;;;;;-2.27;81.67;102653.41;4955420;29;20531;-70
2024/01/08 05:03:48;;;;;;;13.77;12.27;;;;;;;-2.24;81.54;102648.09;4954887;29;20193;-70
2024/01/08 05:06:16;;;;;;;20.13;14.07;;;;;;;-2.34;81.30;102640.41;4955137;29;20197;-70
2024/01/08 05:08:42;;;;;;;16.73;12.87;;;;;;;-2.30;81.65;102635.97;4954719;28;20369;-70
2024/01/08 05:11:10;;;;;;;15.93;11.83;;;;;;;-2.17;81.86;102639.28;4954720;29;20198;-70
2024/01/08 05:13:40;;;;;;;15.97;13.17;;;;;;;-2.28;82.18;102642.03;4954691;29;20195;-71
2024/01/08 05:16:07;;;;;;;18.80;12.07;;;;;;;-2.30;82.08;102635.97;4955270;29;20176;-70
2024/01/08 05:18:33;;;;;;;21.07;13.80;;;;;;;-2.23;82.05;102642.84;4954860;28;20712;-70
2024/01/08 05:21:00;;;;;;;17.27;12.97;;;;;;;-2.15;82.10;102638.34;4954984;29;20222;-70
2024/01/08 05:23:26;;;;;;;18.20;13.03;;;;;;;-2.24;82.34;102637.63;4954723;29;20186;-71
2024/01/08 05:25:53;;;;;;;17.40;13.03;;;;;;;-2.28;83.10;102639.44;4955223;29;20238;-71
2024/01/08 05:28:19;;;;;;;20.67;13.73;;;;;;;-2.25;82.44;102633.28;4954615;28;20211;-70
2024/01/08 05:30:46;;;;;;;22.73;14.07;;;;;;;-2.31;82.99;102639.47;4954641;29;20267;-70
2024/01/08 05:33:12;;;;;;;16.87;12.33;;;;;;;-2.24;83.08;102635.88;4954568;29;20190;-70
2024/01/08 05:35:40;;;;;;;22.47;14.23;;;;;;;-2.14;82.69;102634.84;4937500;29;20225;-70
2024/01/08 05:38:07;;;;;;;29.50;14.53;;;;;;;-2.17;83.11;102640.16;4955219;28;20229;-70
2024/01/08 05:40:33;;;;;;;18.33;13.13;;;;;;;-2.23;83.28;102635.00;4957806;28;20202;-70
2024/01/08 05:43:00;;;;;;;20.80;13.33;;;;;;;-2.15;82.40;102633.13;4958265;29;20563;-70
2024/01/08 05:45:26;;;;;;;20.83;14.17;;;;;;;-2.17;83.28;102634.03;4958005;29;20194;-70
2024/01/08 05:47:54;;;;;;;20.97;13.87;;;;;;;-2.20;82.92;102629.69;4957939;28;20219;-70
2024/01/08 05:50:25;;;;;;;20.90;13.70;;;;;;;-2.17;82.48;102624.44;4958459;29;20271;-70
2024/01/08 05:52:52;;;;;;;22.30;13.93;;;;;;;-2.12;82.84;102634.84;4957933;29;20187;-70
2024/01/08 05:55:19;;;;;;;23.13;15.17;;;;;;;-2.03;81.46;102638.16;4957763;29;20229;-70
2024/01/08 05:57:46;;;;;;;18.87;13.00;;;;;;;-2.07;82.33;102643.47;4957737;28;20206;-70
2024/01/08 06:00:14;;;;;;;19.63;14.67;;;;;;;-2.04;81.90;102635.56;4957741;29;20203;-70
2024/01/08 06:02:41;;;;;;;18.53;13.67;;;;;;;-2.07;81.88;102638.22;4957966;29;20193;-70
2024/01/08 06:05:09;;;;;;;21.57;13.00;;;;;;;-2.08;82.50;102645.22;4958394;29;20212;-70
2024/01/08 06:07:36;;;;;;;22.80;14.30;;;;;;;-2.04;81.77;102640.81;4958203;28;20218;-70
2024/01/08 06:10:03;;;;;;;16.07;12.87;;;;;;;-2.05;81.81;102645.19;4957499;29;20199;-70
2024/01/08 06:12:30;;;;;;;20.87;13.77;;;;;;;-2.09;82.24;102646.13;4958049;29;20206;-70
2024/01/08 06:14:57;;;;;;;20.50;12.13;;;;;;;-2.07;82.77;102648.69;4957458;29;20213;-70
2024/01/08 06:17:23;;;;;;;18.53;13.53;;;;;;;-2.06;82.70;102653.94;4957669;28;20212;-70
2024/01/08 06:19:50;;;;;;;20.60;13.20;;;;;;;-2.04;81.86;102644.31;4957658;29;20195;-70
2024/01/08 06:22:16;;;;;;;24.80;13.77;;;;;;;-2.07;81.86;102652.19;4957327;29;20200;-70
2024/01/08 06:24:43;;;;;;;16.17;13.17;;;;;;;-2.09;81.81;102651.38;4957307;29;20192;-70
2024/01/08 06:27:09;;;;;;;21.73;12.57;;;;;;;-2.08;82.16;102653.06;4957178;28;20195;-70
2024/01/08 06:29:36;;;;;;;15.77;12.07;;;;;;;-2.00;81.66;102655.59;4957203;29;20203;-70
2024/01/08 06:32:03;;;;;;;13.53;11.47;;;;;;;-2.02;80.93;102650.38;4957377;29;20195;-70
2024/01/08 06:34:29;;;;;;;13.33;11.87;;;;;;;-1.96;80.07;102646.78;4955833;29;20250;-70
2024/01/08 06:36:56;;;;;;;16.70;12.60;;;;;;;-2.00;80.63;102652.97;4956992;28;20210;-70
2024/01/08 06:39:22;;;;;;;14.77;12.03;;;;;;;-1.92;80.49;102651.09;4957546;29;20191;-70
2024/01/08 06:41:49;;;;;;;17.40;12.10;;;;;;;-1.94;80.40;102658.97;4957284;29;20188;-70
2024/01/08 06:44:15;;;;;;;15.70;13.03;;;;;;;-1.91;80.50;102647.59;4957714;29;20187;-70
2024/01/08 06:46:42;;;;;;;20.70;12.63;;;;;;;-2.01;80.76;102657.34;4956877;29;20440;-70
2024/01/08 06:49:08;;;;;;;17.90;13.63;;;;;;;-2.06;81.67;102651.31;4957028;28;20218;-70
2024/01/08 06:51:40;;;;;;;17.87;12.07;;;;;;;-1.93;81.46;102667.69;4956441;28;20199;-70
2024/01/08 06:54:07;;;;;;;16.43;12.80;;;;;;;-1.94;81.45;102658.09;4956974;29;20226;-70
2024/01/08 06:56:34;;;;;;;17.23;12.80;;;;;;;-1.94;82.58;102658.97;4956755;29;20667;-70
2024/01/08 06:59:01;;;;;;;18.10;13.27;;;;;;;-1.86;82.70;102659.72;4956618;28;20211;-70
2024/01/08 07:01:28;;;;;;;19.33;12.90;;;;;;;-1.95;82.46;102661.59;4956975;29;20283;-70
2024/01/08 07:03:55;;;;;;;14.50;12.30;;;;;;;-1.86;81.99;102653.59;4956671;29;20698;-70
2024/01/08 07:06:21;;;;;;;17.33;12.57;;;;;;;-1.88;82.88;102647.53;4956807;29;20206;-70
2024/01/08 07:08:48;;;;;;;15.90;12.43;;;;;;;-1.99;83.05;102649.44;4956487;28;20213;-70
2024/01/08 07:11:22;;;;;;;19.30;12.77;;;;;;;-2.01;83.35;102646.88;4956551;29;20190;-70
2024/01/08 07:13:50;;;;;;;17.77;12.33;;;;;;;-1.97;82.95;102660.78;4956710;29;20613;-70
2024/01/08 07:16:17;;;;;;;15.93;12.73;;;;;;;-1.99;83.24;102662.53;4956837;29;20210;-70
2024/01/08 07:18:44;;;;;;;21.97;11.80;;;;;;;-1.96;83.43;102663.38;4956271;28;20288;-70
2024/01/08 07:21:16;;;;;;;15.60;11.67;;;;;;;-2.07;83.58;102665.28;4956272;29;20199;-70
2024/01/08 07:23:48;;;;;;;24.37;12.70;;;;;;;-2.03;84.04;102672.22;4956271;29;20654;-70
2024/01/08 07:26:16;;;;;;;16.67;11.17;;;;;;;-1.99;83.16;102668.66;4956497;29;20567;-70
2024/01/08 07:28:44;;;;;;;19.87;12.27;;;;;;;-1.98;82.86;102666.91;4956399;28;20758;-71
2024/01/08 07:31:11;;;;;;;14.00;12.60;;;;;;;-2.01;82.39;102669.59;4956072;29;20196;-71
2024/01/08 07:33:38;;;;;;;13.30;11.77;;;;;;;-1.95;83.15;102674.72;4956039;29;20184;-70
2024/01/08 07:36:05;;;;;;;12.90;11.37;;;;;;;-1.91;82.18;102672.00;4956100;29;20214;-70
2024/01/08 07:38:32;;;;;;;15.47;11.30;;;;;;;-1.98;82.22;102673.00;4956149;28;20218;-71
2024/01/08 07:41:01;;;;;;;18.93;11.77;;;;;;;-1.96;82.91;102679.13;4956122;29;20232;-70
2024/01/08 07:43:27;;;;;;;13.43;10.93;;;;;;;-1.97;82.18;102673.88;4955805;29;20190;-70
2024/01/08 07:45:54;;;;;;;16.80;12.23;;;;;;;-2.01;83.15;102678.31;4956365;29;20656;-70
2024/01/08 07:48:21;;;;;;;15.13;11.67;;;;;;;-2.00;82.39;102684.44;4955975;28;20214;-70
2024/01/08 07:50:48;;;;;;;14.30;11.83;;;;;;;-1.97;82.68;102677.38;4956032;29;20195;-70
2024/01/08 07:53:16;;;;;;;15.13;11.57;;;;;;;-1.94;82.52;102682.56;4955695;29;20183;-70
2024/01/08 07:55:42;;;;;;;12.87;11.27;;;;;;;-1.99;82.07;102680.88;4955633;29;20212;-70
2024/01/08 07:58:13;;;;;;;20.33;11.83;;;;;;;-1.96;82.37;102678.25;4955923;28;20208;-70
2024/01/08 08:00:41;;;;;;;14.90;11.33;;;;;;;-2.00;82.95;102687.03;4956727;29;20524;-70
2024/01/08 08:03:07;;;;;;;11.43;10.40;;;;;;;-1.98;82.44;102691.34;4954673;28;20274;-70
2024/01/08 08:05:34;;;;;;;12.83;11.57;;;;;;;-1.93;82.46;102692.16;4955995;29;20528;-70
2024/01/08 08:08:01;;;;;;;13.43;10.43;;;;;;;-1.94;82.69;102690.41;4955703;28;20725;-70
2024/01/08 08:10:27;;;;;;;13.73;12.30;;;;;;;-1.92;82.93;102687.78;4955533;29;20205;-70
2024/01/08 08:12:54;;;;;;;14.97;11.73;;;;;;;-1.95;82.30;102691.31;4955662;29;20191;-70
2024/01/08 08:15:20;;;;;;;13.27;11.53;;;;;;;-1.98;82.73;102691.34;4955577;29;20202;-70
2024/01/08 08:17:47;;;;;;;15.87;12.03;;;;;;;-1.89;82.84;102692.97;4955272;28;20713;-70
2024/01/08 08:20:14;;;;;;;14.43;11.57;;;;;;;-1.92;82.83;102695.66;4955540;29;20191;-71
2024/01/08 08:22:40;;;;;;;12.47;11.13;;;;;;;-1.92;83.86;102695.66;4955204;29;20241;-71
2024/01/08 08:25:10;;;;;;;13.30;11.93;;;;;;;-1.99;83.99;102697.47;4955525;29;20238;-70
2024/01/08 08:27:36;;;;;;;15.87;12.57;;;;;;;-1.81;82.99;102701.56;4955167;28;20217;-70
2024/01/08 08:30:03;;;;;;;18.93;12.10;;;;;;;-1.83;83.68;102697.25;4955160;29;20519;-70
2024/01/08 08:32:30;;;;;;;13.10;11.73;;;;;;;-1.93;84.37;102699.16;4955728;29;20186;-70
2024/01/08 08:34:56;;;;;;;14.87;11.80;;;;;;;-1.91;83.53;102707.88;4955627;29;20248;-70
2024/01/08 08:37:23;;;;;;;18.77;13.00;;;;;;;-1.94;83.95;102707.91;4954984;28;20215;-70
2024/01/08 08:40:12;;;;;;;14.37;12.47;;;;;;;-2.03;83.00;102710.66;4937861;29;20221;-70
2024/01/08 08:42:39;;;;;;;14.27;12.73;;;;;;;-1.98;83.51;102706.22;4955573;29;20193;-70
2024/01/08 08:45:06;;;;;;;15.93;12.50;;;;;;;-1.91;82.92;102705.25;4955015;29;20186;-70
2024/01/08 08:47:33;;;;;;;16.87;12.13;;;;;;;-1.93;82.81;102715.75;4954953;28;20638;-70
2024/01/08 08:49:59;;;;;;;11.60;10.50;;;;;;;-1.89;82.90;102714.81;4954972;29;20725;-70
2024/01/08 08:52:26;;;;;;;16.70;11.47;;;;;;;-1.94;81.76;102714.00;4955173;29;20246;-70
2024/01/08 08:54:52;;;;;;;13.30;10.67;;;;;;;-1.89;81.52;102709.56;4954891;29;20215;-70
2024/01/08 08:57:19;;;;;;;16.53;10.90;;;;;;;-1.92;79.61;102717.50;4954861;28;20210;-70
2024/01/08 08:59:45;;;;;;;11.03;10.00;;;;;;;-1.93;76.38;102720.13;4955443;29;20203;-70
2024/01/08 09:02:14;;;;;;;10.30;9.20;;;;;;;-1.84;73.72;102717.38;4955405;29;20183;-70
2024/01/08 09:04:40;;;;;;;10.47;8.97;;;;;;;-1.80;72.06;102724.28;4954832;29;20227;-70
2024/01/08 09:07:07;;;;;;;7.43;6.83;;;;;;;-1.85;69.29;102733.97;4955070;28;20188;-70
2024/01/08 09:09:33;;;;;;;8.40;7.70;;;;;;;-1.90;68.33;102734.03;4954611;29;20186;-70
2024/01/08 09:12:00;;;;;;;11.47;6.77;;;;;;;-1.87;69.35;102727.91;4954803;29;20604;-70
2024/01/08 09:14:26;;;;;;;8.13;7.40;;;;;;;-1.80;68.73;102733.91;4956384;28;20195;-70
2024/01/08 09:16:53;;;;;;;9.27;7.63;;;;;;;-1.87;69.20;102733.16;4958775;29;20207;-70
2024/01/08 09:19:19;;;;;;;8.37;7.70;;;;;;;-1.89;68.25;102732.28;4958950;29;20275;-70
2024/01/08 09:21:47;;;;;;;7.70;7.30;;;;;;;-1.83;68.71;102741.81;4958715;29;20198;-70
2024/01/08 09:24:14;;;;;;;8.30;7.70;;;;;;;-1.76;68.79;102746.06;4958398;29;20199;-70
2024/01/08 09:26:41;;;;;;;9.00;8.33;;;;;;;-1.68;69.33;102747.69;4958352;29;20287;-71
2024/01/08 09:29:08;;;;;;;8.30;7.57;;;;;;;-1.58;69.45;102751.03;4958250;28;20218;-71
2024/01/08 09:31:35;;;;;;;9.67;8.73;;;;;;;-1.61;69.15;102748.47;4958669;29;20194;-71
2024/01/08 09:34:02;;;;;;;9.00;8.17;;;;;;;-1.57;68.23;102753.59;4958490;29;20190;-71
2024/01/08 09:36:28;;;;;;;9.17;8.47;;;;;;;-1.42;67.83;102752.50;4958420;29;20195;-70
2024/01/08 09:38:55;;;;;;;8.30;7.70;;;;;;;-1.46;67.16;102753.44;4958033;28;20216;-71
2024/01/08 09:41:21;;;;;;;7.63;7.23;;;;;;;-1.64;65.95;102754.59;4958355;29;20242;-71
2024/01/08 09:43:52;;;;;;;8.87;8.27;;;;;;;-1.61;65.67;102757.16;4958054;29;20240;-71
2024/01/08 09:46:26;;;;;;;9.23;8.17;;;;;;;-1.44;66.48;102751.66;4958547;29;20188;-71
2024/01/08 09:48:56;;;;;;;8.07;7.47;;;;;;;-1.34;65.82;102763.72;4958495;28;20360;-71
2024/01/08 09:51:23;;;;;;;8.53;8.00;;;;;;;-1.32;64.44;102763.72;4957939;29;20227;-71
2024/01/08 09:53:52;;;;;;;6.27;6.17;;;;;;;-1.41;63.00;102752.50;4958089;29;20549;-71
2024/01/08 09:56:20;;;;;;;8.60;7.97;;;;;;;-1.45;63.76;102756.06;4958005;29;20747;-71
2024/01/08 09:58:46;;;;;;;7.97;7.50;;;;;;;-1.43;62.94;102761.25;4958024;28;20212;-71
2024/01/08 10:01:13;;;;;;;7.23;6.83;;;;;;;-1.52;63.46;102774.50;4958465;29;20282;-71
2024/01/08 10:03:39;;;;;;;7.60;7.10;;;;;;;-1.55;62.95;102766.72;4957733;29;20668;-71
2024/01/08 10:06:07;;;;;;;11.93;6.50;;;;;;;-1.64;60.46;102770.34;4957595;29;20655;-71
2024/01/08 10:08:34;;;;;;;6.63;6.27;;;;;;;-1.71;60.70;102766.09;4958112;28;20713;-71
2024/01/08 10:11:03;;;;;;;14.00;6.93;;;;;;;-1.78;61.08;102764.44;4957620;29;20186;-71
2024/01/08 10:13:29;;;;;;;26.43;8.07;;;;;;;-1.77;61.89;102765.31;4957549;29;20278;-71
2024/01/08 10:15:56;;;;;;;8.30;6.73;;;;;;;-1.78;61.04;102768.84;4957896;29;20671;-71
2024/01/08 10:18:23;;;;;;;6.87;6.47;;;;;;;-1.70;60.03;102780.06;4957606;28;20255;-71
2024/01/08 10:21:10;;;;;;;7.57;6.93;;;;;;;-1.68;60.30;102778.28;4957471;29;20266;-71
2024/01/08 10:23:37;;;;;;;6.00;5.70;;;;;;;-1.71;57.20;102778.34;4957357;29;20179;-71
2024/01/08 10:26:04;;;;;;;5.70;5.40;;;;;;;-1.89;57.57;102782.97;4956201;28;20201;-72
2024/01/08 10:28:37;;;;;;;7.20;6.37;;;;;;;-1.78;56.31;102776.72;4940189;29;20614;-71
2024/01/08 10:31:05;;;;;;;6.53;6.13;;;;;;;-1.85;54.86;102773.28;4957155;29;20206;-71
2024/01/08 10:33:32;;;;;;;6.03;5.73;;;;;;;-1.81;55.48;102777.59;4957104;29;20437;-71
2024/01/08 10:36:07;;;;;;;7.53;7.03;;;;;;;-1.69;55.37;102771.28;4957336;29;20610;-71
2024/01/08 10:38:34;;;;;;;7.20;6.80;;;;;;;-1.78;54.62;102771.47;4957287;28;20257;-71
2024/01/08 10:41:01;;;;;;;5.70;5.30;;;;;;;-1.62;55.35;102770.31;4957266;29;20588;-71
2024/01/08 10:43:29;;;;;;;7.57;7.13;;;;;;;-1.48;54.37;102776.19;4957064;29;20194;-71
2024/01/08 10:46:04;;;;;;;6.67;5.77;;;;;;;-1.64;53.14;102775.59;4956891;29;20186;-71
2024/01/08 10:48:50;;;;;;;6.10;5.80;;;;;;;-1.58;54.62;102780.75;4957159;28;20210;-71
2024/01/08 10:51:18;;;;;;;5.93;5.63;;;;;;;-1.66;51.92;102776.50;4956845;29;20647;-71
2024/01/08 10:53:46;;;;;;;8.87;6.33;;;;;;;-1.54;53.15;102778.94;4957103;29;20192;-71
2024/01/08 10:56:20;;;;;;;6.57;6.13;;;;;;;-1.66;52.15;102781.75;4957020;29;20198;-71
2024/01/08 10:59:06;;;;;;;11.90;5.60;;;;;;;-1.66;51.59;102784.38;4956659;28;20222;-71
2024/01/08 11:01:33;;;;;;;10.07;6.07;;;;;;;-1.59;52.09;102776.38;4957214;29;20183;-71
2024/01/08 11:04:01;;;;;;;7.87;6.67;;;;;;;-1.74;51.57;102770.53;4957144;29;20209;-71
2024/01/08 11:06:29;;;;;;;6.30;6.00;;;;;;;-1.73;52.87;102766.97;4956752;29;20191;-71
2024/01/08 11:08:57;;;;;;;5.63;5.43;;;;;;;-1.81;50.96;102764.50;4956675;28;20647;-71
2024/01/08 11:11:23;;;;;;;6.07;5.87;;;;;;;-1.91;51.64;102770.78;4956380;29;20191;-71
2024/01/08 11:13:50;;;;;;;6.30;5.90;;;;;;;-1.91;52.16;102768.16;4956433;29;20666;-71
2024/01/08 11:16:29;;;;;;;6.17;5.87;;;;;;;-1.81;52.47;102774.09;4956304;29;20210;-71
2024/01/08 11:19:18;;;;;;;6.40;6.10;;;;;;;-1.83;52.85;102765.41;4956342;28;20203;-71